Time;durP1;ratioP1;P1;durP2;ratioP2;P2;SDS_P1;SDS_P2;PMS_P1;PMS_P2;Temp;Humidity;BMP_temperature;BMP_pressure;BME280_temperature;BME280_humidity;BME280_pressure;Samples;Min_cycle;Max_cycle;Signal;HPM_P1;HPM_P2
2021/04/21 00:02:16;;;;;;;7.75;6.65;;;;;;;6.99;74.01;98825.13;1662940;86;21210;-67
2021/04/21 00:04:44;;;;;;;8.63;6.75;;;;;;;7.01;73.86;98822.98;1662108;84;21335;-66
2021/04/21 00:07:17;;;;;;;8.15;6.80;;;;;;;7.06;73.71;98831.62;1710312;83;21311;-65
2021/04/21 00:09:46;;;;;;;9.75;7.28;;;;;;;6.85;73.71;98803.22;1709300;82;21317;-65
2021/04/21 00:12:16;;;;;;;10.08;6.95;;;;;;;6.97;73.94;98833.53;1708953;83;21102;-65
2021/04/21 00:14:45;;;;;;;11.78;7.80;;;;;;;6.92;74.08;98834.05;1707417;82;21173;-65
2021/04/21 00:17:13;;;;;;;11.75;8.75;;;;;;;6.94;74.02;98829.20;1636311;88;21318;-66
2021/04/21 00:19:41;;;;;;;12.47;10.50;;;;;;;6.94;73.95;98832.70;1663686;86;21366;-66
2021/04/21 00:22:10;;;;;;;13.80;12.30;;;;;;;6.90;74.06;98834.34;1640967;86;21188;-66
2021/04/21 00:24:38;;;;;;;13.05;11.38;;;;;;;6.84;74.23;98837.28;1688232;84;21296;-66
2021/04/21 00:27:07;;;;;;;11.50;9.63;;;;;;;6.82;74.22;98843.52;1700081;84;21149;-66
2021/04/21 00:29:40;;;;;;;11.10;8.35;;;;;;;6.83;74.16;98845.97;1690225;82;21293;-66
2021/04/21 00:32:08;;;;;;;11.18;7.85;;;;;;;6.85;74.12;98842.98;1699684;84;21264;-65
2021/04/21 00:34:37;;;;;;;9.28;7.00;;;;;;;6.78;74.26;98850.55;1672159;84;21181;-65
2021/04/21 00:37:04;;;;;;;9.75;7.55;;;;;;;6.70;74.47;98848.36;1709156;84;21202;-64
2021/04/21 00:39:32;;;;;;;9.30;6.87;;;;;;;6.66;74.54;98849.44;1695333;83;21380;-65
2021/04/21 00:42:16;;;;;;;8.80;5.17;;;;;;;6.68;74.64;98857.29;1706362;84;21153;-65
2021/04/21 00:44:56;;;;;;;7.53;5.95;;;;;;;6.64;75.01;98854.31;1696719;84;21755;-66
2021/04/21 00:47:48;;;;;;;12.13;8.28;;;;;;;6.51;75.58;98849.42;1687831;84;21724;-66
2021/04/21 00:50:21;;;;;;;14.55;9.30;;;;;;;6.42;75.73;98855.88;1700057;82;21934;-66
2021/04/21 00:52:59;;;;;;;16.42;9.85;;;;;;;6.47;75.67;98854.55;1702844;83;21272;-66
2021/04/21 00:55:47;;;;;;;12.47;8.13;;;;;;;6.44;75.78;98850.21;1688215;84;21165;-64
2021/04/21 00:58:49;;;;;;;8.85;6.78;;;;;;;6.34;76.49;98850.97;1709247;82;21558;-65
2021/04/21 01:01:17;;;;;;;7.53;4.92;;;;;;;6.34;76.35;98845.56;1672472;84;21201;-64
2021/04/21 01:03:45;;;;;;;7.78;5.80;;;;;;;6.33;76.67;98856.66;1685326;84;21177;-64
2021/04/21 01:06:17;;;;;;;7.62;5.33;;;;;;;6.21;76.99;98847.95;1614755;88;21141;-64
2021/04/21 01:08:53;;;;;;;8.13;5.53;;;;;;;6.14;77.17;98851.44;1652115;84;21572;-64
2021/04/21 01:11:26;;;;;;;9.05;5.78;;;;;;;6.19;77.12;98849.59;1706787;83;21181;-65
2021/04/21 01:13:55;;;;;;;8.13;4.97;;;;;;;6.20;77.13;98854.46;1701807;82;21134;-65
2021/04/21 01:16:26;;;;;;;7.92;5.62;;;;;;;6.12;77.37;98849.56;1689192;84;21235;-65
2021/04/21 01:18:56;;;;;;;7.30;5.00;;;;;;;6.05;77.61;98848.98;1703166;84;21165;-65
2021/04/21 01:21:35;;;;;;;9.48;5.50;;;;;;;6.04;77.95;98852.22;1678924;85;21209;-65
2021/04/21 01:24:22;;;;;;;9.83;5.90;;;;;;;6.08;77.85;98851.16;1696453;82;21612;-67
2021/04/21 01:27:07;;;;;;;7.85;5.62;;;;;;;6.03;78.04;98855.99;1691976;84;21202;-66
2021/04/21 01:29:43;;;;;;;7.90;5.75;;;;;;;5.98;78.08;98855.45;1636415;88;21165;-66
2021/04/21 01:32:19;;;;;;;8.70;6.67;;;;;;;6.02;77.88;98853.04;1648823;86;21206;-66
2021/04/21 01:34:47;;;;;;;8.15;6.75;;;;;;;5.97;78.07;98852.47;1667040;86;21179;-66
2021/04/21 01:37:21;;;;;;;8.70;6.15;;;;;;;5.87;78.43;98857.83;1703127;84;21719;-65
2021/04/21 01:39:58;;;;;;;7.10;5.22;;;;;;;5.88;78.36;98861.34;1685135;84;21134;-64
2021/04/21 01:42:28;;;;;;;8.83;5.60;;;;;;;5.95;78.20;98861.92;1661432;85;21303;-65
2021/04/21 01:44:55;;;;;;;7.83;5.62;;;;;;;5.91;78.37;98859.47;1689979;84;21214;-65
2021/04/21 01:47:22;;;;;;;8.10;5.95;;;;;;;5.81;78.75;98862.88;1633859;87;21177;-65
2021/04/21 01:50:11;;;;;;;10.75;6.97;;;;;;;5.81;78.80;98862.88;1708052;82;21122;-65
2021/04/21 01:52:43;;;;;;;9.88;8.20;;;;;;;5.84;78.64;98866.95;1652768;85;21173;-65
2021/04/21 01:55:27;;;;;;;9.83;8.58;;;;;;;5.62;78.77;98837.92;1696229;84;21810;-65
2021/04/21 01:58:22;;;;;;;9.25;8.35;;;;;;;5.76;78.87;98866.91;1694532;84;21189;-65
2021/04/21 02:00:53;;;;;;;11.00;8.45;;;;;;;5.80;78.70;98863.15;1683123;84;21554;-65
2021/04/21 02:03:36;;;;;;;9.93;8.75;;;;;;;5.86;78.50;98862.94;1690412;82;21137;-65
2021/04/21 02:06:41;;;;;;;8.53;7.40;;;;;;;5.87;78.46;98868.62;1705955;83;21600;-65
2021/04/21 02:09:52;;;;;;;9.70;8.30;;;;;;;5.81;78.60;98867.48;1707213;82;21189;-65
2021/04/21 02:13:00;;;;;;;13.35;9.10;;;;;;;5.73;78.90;98863.39;1713645;83;21699;-67
2021/04/21 02:15:54;;;;;;;11.63;9.03;;;;;;;5.75;78.93;98869.86;1707601;83;21165;-65
2021/04/21 02:18:59;;;;;;;13.80;11.48;;;;;;;5.71;79.08;98865.52;1684589;82;21820;-65
2021/04/21 02:21:49;;;;;;;11.43;9.53;;;;;;;5.64;79.38;98868.17;1708827;83;21113;-66
2021/04/21 02:24:46;;;;;;;14.15;11.75;;;;;;;5.67;79.48;98869.02;1651454;86;21309;-65
2021/04/21 02:27:28;;;;;;;15.48;13.43;;;;;;;5.69;79.45;98866.86;1700432;84;21291;-65
2021/04/21 02:29:59;;;;;;;14.90;12.45;;;;;;;5.65;79.64;98873.85;1674708;84;21689;-66
2021/04/21 02:33:16;;;;;;;14.78;12.68;;;;;;;5.62;79.80;98873.03;1671228;85;21175;-66
2021/04/21 02:35:55;;;;;;;15.95;12.37;;;;;;;5.70;79.67;98877.42;1667356;85;21187;-64
2021/04/21 02:38:46;;;;;;;18.20;12.65;;;;;;;5.79;79.50;98876.37;1670412;85;21142;-65
2021/04/21 02:41:27;;;;;;;31.55;22.07;;;;;;;5.78;79.64;98878.78;1656035;85;21190;-66
2021/04/21 02:44:20;;;;;;;23.92;16.82;;;;;;;5.71;79.84;98878.20;1672004;84;21650;-67
2021/04/21 02:47:13;;;;;;;22.77;15.10;;;;;;;5.75;79.82;98883.36;1671826;86;21359;-65
2021/04/21 02:50:09;;;;;;;16.07;12.80;;;;;;;5.83;79.72;98876.12;1670016;85;21190;-67
2021/04/21 02:53:01;;;;;;;16.97;13.68;;;;;;;5.84;79.73;98888.56;1671700;85;21637;-65
2021/04/21 02:55:52;;;;;;;15.18;12.37;;;;;;;5.79;79.94;98885.29;1667775;84;21206;-66
2021/04/21 02:58:51;;;;;;;14.30;10.40;;;;;;;5.82;79.93;98886.64;1660704;85;21170;-66
2021/04/21 03:01:39;;;;;;;10.85;6.90;;;;;;;5.86;79.96;98886.44;1589399;86;21237;-66
2021/04/21 03:04:25;;;;;;;;;;;;;;;5.89;80.06;98889.95;1670254;85;21207;-64
2021/04/21 03:06:52;;;;;;;8.95;5.33;;;;;;;5.83;80.43;98882.88;1669581;85;20479;-64
2021/04/21 03:09:37;;;;;;;8.00;4.87;;;;;;;5.80;80.48;98892.86;1657830;84;21638;-65
2021/04/21 03:12:07;;;;;;;7.00;5.12;;;;;;;5.88;80.37;98887.00;1672216;86;21328;-65
2021/04/21 03:14:34;;;;;;;9.28;6.10;;;;;;;5.90;80.30;98886.19;1672371;85;21324;-65
2021/04/21 03:17:07;;;;;;;6.92;5.67;;;;;;;5.93;80.29;98891.88;1671392;85;21304;-64
2021/04/21 03:20:10;;;;;;;6.85;5.35;;;;;;;5.91;80.37;98897.28;1672153;85;21182;-66
2021/04/21 03:22:37;;;;;;;8.00;5.87;;;;;;;5.95;80.37;98897.83;1665759;85;21614;-65
2021/04/21 03:25:16;;;;;;;7.37;5.65;;;;;;;6.00;80.17;98901.92;1649699;84;21196;-65
2021/04/21 03:27:48;;;;;;;7.87;5.87;;;;;;;6.05;80.04;98908.42;1667279;85;21316;-65
2021/04/21 03:30:16;;;;;;;7.42;6.47;;;;;;;6.06;80.04;98914.12;1666366;85;22163;-66
2021/04/21 03:32:52;;;;;;;10.43;7.83;;;;;;;6.04;80.21;98910.84;1666476;85;21798;-65
2021/04/21 03:35:20;;;;;;;10.20;7.35;;;;;;;6.10;80.05;98916.01;1667290;85;21179;-65
2021/04/21 03:38:07;;;;;;;11.48;8.13;;;;;;;6.17;79.68;98913.88;1655376;85;21190;-64
2021/04/21 03:40:37;;;;;;;9.75;7.72;;;;;;;6.18;79.54;98920.92;1663738;85;21317;-64
2021/04/21 03:43:05;;;;;;;7.53;6.72;;;;;;;6.15;79.64;98926.04;1654290;86;21225;-65
2021/04/21 03:45:33;;;;;;;9.73;7.12;;;;;;;6.10;79.81;98929.52;1659041;85;21220;-65
2021/04/21 03:48:01;;;;;;;9.73;7.33;;;;;;;6.12;79.71;98930.62;1667085;86;21305;-64
2021/04/21 03:50:29;;;;;;;9.60;7.47;;;;;;;6.15;79.64;98934.97;1667158;85;21328;-63
2021/04/21 03:53:06;;;;;;;11.28;7.40;;;;;;;6.21;79.63;98939.31;1667105;86;21146;-62
2021/04/21 03:55:35;;;;;;;10.55;7.20;;;;;;;6.21;79.72;98938.49;1655023;85;21354;-62
2021/04/21 03:58:07;;;;;;;8.00;5.92;;;;;;;6.20;79.82;98936.89;1667268;86;21183;-63
2021/04/21 04:00:40;;;;;;;8.88;6.10;;;;;;;6.21;79.82;98935.26;1644960;85;21151;-62
2021/04/21 04:03:19;;;;;;;7.92;6.35;;;;;;;6.26;79.59;98944.75;1667176;86;21738;-61
2021/04/21 04:05:58;;;;;;;9.03;6.80;;;;;;;6.32;79.58;98949.10;1667138;86;21341;-62
2021/04/21 04:08:26;;;;;;;9.70;7.67;;;;;;;6.33;79.46;98953.97;1621829;85;21845;-61
2021/04/21 04:10:54;;;;;;;11.30;8.33;;;;;;;6.33;79.46;98960.20;1667212;86;21361;-62
2021/04/21 04:13:21;;;;;;;10.08;8.00;;;;;;;6.28;79.69;98959.34;1667205;85;21328;-61
2021/04/21 04:15:48;;;;;;;8.73;7.33;;;;;;;6.31;79.80;98950.70;1665215;85;21176;-62
2021/04/21 04:18:16;;;;;;;10.30;7.67;;;;;;;6.40;79.59;98959.42;1667299;85;21203;-62
2021/04/21 04:20:44;;;;;;;11.65;8.38;;;;;;;6.48;79.47;98964.87;1671468;85;21213;-62
2021/04/21 04:23:12;;;;;;;11.25;8.18;;;;;;;6.51;79.37;98956.22;1672536;86;21559;-61
2021/04/21 04:25:50;;;;;;;13.53;9.35;;;;;;;6.53;79.34;98957.30;1668412;86;21191;-61
2021/04/21 04:28:19;;;;;;;11.63;7.95;;;;;;;6.57;79.19;98957.05;1648452;85;21187;-61
2021/04/21 04:30:47;;;;;;;11.93;8.60;;;;;;;6.68;78.97;98959.53;1667081;86;21211;-61
2021/04/21 04:33:16;;;;;;;12.03;7.83;;;;;;;6.72;78.56;98954.41;1666595;84;21145;-62
2021/04/21 04:35:43;;;;;;;9.90;7.17;;;;;;;6.80;78.57;98952.55;1666344;85;21214;-61
2021/04/21 04:38:11;;;;;;;9.53;7.35;;;;;;;6.88;78.56;98954.17;1667496;85;21556;-62
2021/04/21 04:40:39;;;;;;;8.03;6.40;;;;;;;6.97;78.34;98955.84;1670379;86;21192;-62
2021/04/21 04:43:08;;;;;;;9.50;7.03;;;;;;;7.09;78.11;98946.91;1663723;86;21161;-63
2021/04/21 04:45:38;;;;;;;10.00;7.47;;;;;;;7.22;77.27;98956.42;1664473;85;21194;-62
2021/04/21 04:48:08;;;;;;;10.48;7.05;;;;;;;7.24;77.02;98975.91;1667505;85;21305;-62
2021/04/21 04:50:35;;;;;;;13.18;7.65;;;;;;;7.23;76.76;98983.20;1667166;86;21210;-62
2021/04/21 04:53:02;;;;;;;10.55;7.62;;;;;;;7.22;76.80;98978.08;1665351;85;21281;-62
2021/04/21 04:55:29;;;;;;;13.08;8.18;;;;;;;7.18;76.61;98985.92;1669904;84;21232;-62
2021/04/21 04:57:57;;;;;;;9.80;7.25;;;;;;;7.26;76.61;98993.49;1667559;85;21729;-63
2021/04/21 05:00:27;;;;;;;10.00;8.15;;;;;;;7.34;76.32;98992.98;1667344;85;21304;-64
2021/04/21 05:03:26;;;;;;;9.60;7.42;;;;;;;7.43;76.48;98989.20;1667326;86;21324;-62
2021/04/21 05:06:00;;;;;;;12.78;8.33;;;;;;;7.66;76.43;98991.38;1818968;79;22872;-62
2021/04/21 05:08:45;;;;;;;10.25;8.10;;;;;;;7.78;74.66;98990.58;1779061;78;21588;-63
2021/04/21 05:11:14;;;;;;;10.70;8.20;;;;;;;7.87;74.60;98984.05;1759427;81;21299;-60
2021/04/21 05:13:48;;;;;;;11.10;7.97;;;;;;;8.01;74.65;98986.48;1751770;80;21177;-60
2021/04/21 05:16:47;;;;;;;12.07;7.83;;;;;;;8.08;73.73;98990.30;1716585;81;21692;-59
2021/04/21 05:19:43;;;;;;;11.75;8.78;;;;;;;8.05;73.87;98982.14;1696713;83;21218;-60
2021/04/21 05:22:33;;;;;;;12.25;9.23;;;;;;;8.15;73.62;98989.47;1696563;84;21336;-60
2021/04/21 05:25:36;;;;;;;12.30;8.65;;;;;;;8.13;73.09;98992.44;1696924;83;21626;-60
2021/04/21 05:28:27;;;;;;;11.53;8.98;;;;;;;8.03;73.12;98995.17;1696864;84;21155;-60
2021/04/21 05:31:34;;;;;;;12.40;8.88;;;;;;;7.95;73.12;98993.00;1696641;84;21211;-60
2021/04/21 05:34:49;;;;;;;13.80;9.50;;;;;;;7.89;73.17;98992.20;1696079;84;21389;-60
2021/04/21 05:37:45;;;;;;;12.35;8.83;;;;;;;7.82;73.32;98998.98;1724924;83;21283;-59
2021/04/21 05:41:04;;;;;;;11.85;9.88;;;;;;;7.76;73.98;99002.21;1692791;85;21179;-61
2021/04/21 05:44:26;;;;;;;11.15;8.28;;;;;;;7.82;73.96;98996.27;1689482;84;21180;-60
2021/04/21 05:47:34;;;;;;;12.07;9.23;;;;;;;7.88;73.52;98997.88;1688198;85;21173;-60
2021/04/21 05:50:48;;;;;;;12.60;9.35;;;;;;;7.77;73.49;99009.27;1683929;85;21173;-60
2021/04/21 05:53:55;;;;;;;13.22;9.05;;;;;;;7.65;73.79;99011.98;1690956;83;21168;-60
2021/04/21 05:56:46;;;;;;;14.10;9.75;;;;;;;7.62;74.04;99013.31;1690307;83;21676;-62
2021/04/21 05:59:31;;;;;;;12.70;10.70;;;;;;;7.75;74.17;99023.64;1675438;85;21224;-61
2021/04/21 06:01:59;;;;;;;28.35;22.20;;;;;;;7.81;73.87;99023.90;1676368;83;21168;-62
2021/04/21 06:04:27;;;;;;;13.15;10.18;;;;;;;7.72;73.77;99017.95;1691626;84;21192;-62
2021/04/21 06:07:08;;;;;;;9.90;8.23;;;;;;;7.84;73.19;99025.25;1670590;85;21204;-63
2021/04/21 06:09:36;;;;;;;10.90;9.05;;;;;;;7.98;72.81;99042.05;1664652;86;21341;-61
2021/04/21 06:12:11;;;;;;;12.75;9.00;;;;;;;8.08;72.85;99034.45;1676820;85;21504;-61
2021/04/21 06:14:38;;;;;;;13.38;8.80;;;;;;;8.13;72.46;99039.88;1687588;85;21190;-61
2021/04/21 06:17:05;;;;;;;10.70;8.10;;;;;;;8.22;72.59;99039.59;1691095;84;21210;-61
2021/04/21 06:19:33;;;;;;;11.70;8.40;;;;;;;8.37;71.67;99038.78;1687267;85;21733;-60
2021/04/21 06:22:00;;;;;;;11.00;8.40;;;;;;;8.44;71.17;99046.09;1719168;83;21306;-61
2021/04/21 06:24:34;;;;;;;10.98;8.43;;;;;;;8.48;71.37;99045.28;1719654;82;21186;-60
2021/04/21 06:27:13;;;;;;;11.55;7.72;;;;;;;8.58;70.58;99048.50;1692304;85;21595;-61
2021/04/21 06:29:41;;;;;;;10.48;7.78;;;;;;;8.71;69.96;99044.42;1692065;83;21190;-60
2021/04/21 06:32:13;;;;;;;11.57;8.90;;;;;;;8.81;69.59;99047.91;1690738;85;21185;-60
2021/04/21 06:34:40;;;;;;;10.75;7.53;;;;;;;8.89;70.05;99044.60;1682262;83;21215;-60
2021/04/21 06:37:08;;;;;;;13.98;8.20;;;;;;;9.02;69.59;99046.47;1678730;85;21122;-60
2021/04/21 06:39:35;;;;;;;10.60;8.05;;;;;;;9.18;69.74;99043.39;1633456;86;21195;-61
2021/04/21 06:42:04;;;;;;;9.60;7.37;;;;;;;9.38;68.41;99050.09;1683993;84;21979;-61
2021/04/21 06:44:46;;;;;;;9.98;6.85;;;;;;;9.47;67.48;99051.12;1682634;85;21320;-60
2021/04/21 06:47:23;;;;;;;9.85;7.95;;;;;;;9.54;67.22;99056.77;1688161;85;21769;-62
2021/04/21 06:50:27;;;;;;;10.10;7.05;;;;;;;9.59;67.33;99060.29;1702720;83;21625;-61
2021/04/21 06:53:01;;;;;;;9.00;6.97;;;;;;;9.61;66.42;99055.91;1636472;87;21153;-62
2021/04/21 06:55:28;;;;;;;8.33;6.17;;;;;;;9.68;66.69;99050.44;1647370;87;21244;-62
2021/04/21 06:57:56;;;;;;;7.42;5.80;;;;;;;9.84;66.11;99051.15;1658027;86;21208;-63
2021/04/21 07:00:26;;;;;;;11.65;6.53;;;;;;;9.94;65.12;99046.98;1651673;86;21225;-60
2021/04/21 07:02:58;;;;;;;7.53;5.92;;;;;;;10.02;64.01;99048.29;1659227;86;21319;-61
2021/04/21 07:05:36;;;;;;;8.88;6.37;;;;;;;10.04;64.28;99041.46;1656477;86;21201;-61
2021/04/21 07:08:11;;;;;;;8.43;6.17;;;;;;;10.17;63.77;99048.98;1658677;85;21323;-63
2021/04/21 07:10:48;;;;;;;9.10;5.92;;;;;;;10.27;62.85;99050.25;1653824;86;21234;-62
2021/04/21 07:13:31;;;;;;;5.85;4.37;;;;;;;10.33;62.73;99053.21;1650727;86;21186;-63
2021/04/21 07:16:01;;;;;;;9.53;5.25;;;;;;;10.42;63.21;99052.84;1653336;86;21188;-60
2021/04/21 07:18:32;;;;;;;9.85;5.22;;;;;;;10.52;62.05;99052.49;1650645;86;21143;-61
2021/04/21 07:21:00;;;;;;;6.75;5.05;;;;;;;10.52;60.96;99055.21;1649998;86;21195;-62
2021/04/21 07:23:28;;;;;;;7.62;4.90;;;;;;;10.59;61.03;99054.32;1651262;86;21189;-61
2021/04/21 07:25:56;;;;;;;5.33;4.12;;;;;;;10.61;59.71;99057.01;1655330;86;21185;-63
2021/04/21 07:28:23;;;;;;;8.65;5.40;;;;;;;10.60;58.81;99060.82;1653410;86;21186;-63
2021/04/21 07:30:52;;;;;;;7.12;5.10;;;;;;;10.57;59.36;99055.14;1644716;86;21325;-63
2021/04/21 07:33:39;;;;;;;6.25;3.80;;;;;;;10.53;58.16;99064.98;1645120;86;21241;-63
2021/04/21 07:36:14;;;;;;;6.60;4.70;;;;;;;10.36;58.26;99066.23;1645321;86;21770;-63
2021/04/21 07:38:46;;;;;;;6.53;4.78;;;;;;;10.19;59.62;99069.11;1650288;86;21259;-63
2021/04/21 07:41:35;;;;;;;7.95;5.33;;;;;;;10.16;60.02;99066.97;1626273;87;21177;-62
2021/04/21 07:44:06;;;;;;;7.78;5.03;;;;;;;10.17;60.32;99069.38;1624804;87;21227;-62
2021/04/21 07:46:34;;;;;;;6.42;4.62;;;;;;;10.21;61.05;99070.98;1637573;87;21192;-62
2021/04/21 07:49:06;;;;;;;8.13;5.37;;;;;;;10.26;61.24;99079.12;1672149;86;21231;-62
2021/04/21 07:51:36;;;;;;;6.92;5.53;;;;;;;10.45;62.15;99074.02;1659104;85;21295;-63
2021/04/21 07:54:07;;;;;;;7.10;5.05;;;;;;;10.77;61.57;99071.28;1671881;86;21173;-63
2021/04/21 07:56:57;;;;;;;7.47;4.80;;;;;;;10.95;60.50;99070.50;1669960;86;21652;-62
2021/04/21 07:59:32;;;;;;;7.80;5.28;;;;;;;11.15;60.05;99077.09;1702886;84;21609;-62
2021/04/21 08:02:16;;;;;;;8.30;4.90;;;;;;;11.39;59.18;99079.78;1701790;84;21176;-62
2021/04/21 08:04:55;;;;;;;5.58;4.05;;;;;;;11.67;56.63;99074.75;1703491;84;21218;-63
2021/04/21 08:07:35;;;;;;;7.80;4.35;;;;;;;11.74;56.66;99081.23;1691731;84;21756;-63
2021/04/21 08:10:11;;;;;;;5.37;4.10;;;;;;;11.67;55.18;99082.11;1681436;84;21214;-64
2021/04/21 08:12:39;;;;;;;7.22;4.53;;;;;;;11.57;55.82;99081.71;1699641;84;21184;-61
2021/04/21 08:15:10;;;;;;;5.85;4.10;;;;;;;11.67;56.38;99080.20;1677948;84;21328;-62
2021/04/21 08:18:05;;;;;;;4.97;4.20;;;;;;;11.78;54.59;99087.72;1679227;84;21209;-62
2021/04/21 08:20:37;;;;;;;6.22;4.00;;;;;;;11.75;56.05;99086.95;1699798;84;21350;-63
2021/04/21 08:23:09;;;;;;;6.97;4.20;;;;;;;11.66;55.15;99087.30;1696832;84;21304;-62
2021/04/21 08:25:36;;;;;;;5.67;4.00;;;;;;;11.61;55.60;99086.03;1695351;84;21318;-61
2021/04/21 08:28:04;;;;;;;7.12;4.40;;;;;;;11.62;55.58;99087.66;1694347;84;21146;-62
2021/04/21 08:30:32;;;;;;;5.28;3.85;;;;;;;11.67;55.71;99085.66;1677541;84;21201;-62
2021/04/21 08:32:59;;;;;;;5.58;3.83;;;;;;;11.72;55.64;99087.54;1668915;84;21197;-63
2021/04/21 08:35:27;;;;;;;6.05;4.25;;;;;;;11.70;53.20;99087.79;1679457;84;21190;-62
2021/04/21 08:37:54;;;;;;;5.58;3.70;;;;;;;11.68;53.96;99082.38;1668484;86;21641;-62
2021/04/21 08:40:24;;;;;;;5.08;3.58;;;;;;;11.79;55.78;99087.98;1675881;84;21723;-62
2021/04/21 08:42:57;;;;;;;4.65;3.55;;;;;;;12.03;53.54;99078.34;1692513;84;21173;-64
2021/04/21 08:45:27;;;;;;;5.60;3.72;;;;;;;12.17;52.14;99090.11;1690448;84;21200;-61
2021/04/21 08:47:55;;;;;;;4.45;3.27;;;;;;;12.20;51.84;99079.41;1685756;84;21169;-63
2021/04/21 08:50:24;;;;;;;6.00;3.00;;;;;;;12.24;51.50;99087.81;1689997;84;21194;-62
2021/04/21 08:52:56;;;;;;;5.25;3.33;;;;;;;12.37;49.82;99091.12;1648272;84;21189;-62
2021/04/21 08:55:27;;;;;;;5.80;3.62;;;;;;;12.32;50.42;99090.69;1689067;84;21202;-61
2021/04/21 08:57:56;;;;;;;4.83;3.40;;;;;;;12.25;51.16;99091.63;1668911;84;21225;-62
2021/04/21 09:00:23;;;;;;;4.58;3.40;;;;;;;12.19;51.26;99083.24;1679700;85;21713;-62
2021/04/21 09:02:51;;;;;;;5.97;3.27;;;;;;;12.12;51.86;99096.45;1655557;86;21324;-62
2021/04/21 09:05:19;;;;;;;6.97;4.97;;;;;;;11.94;51.22;99086.37;1639513;86;21396;-62
2021/04/21 09:07:47;;;;;;;5.30;3.98;;;;;;;11.88;50.97;99084.83;1639071;86;21189;-60
2021/04/21 09:10:17;;;;;;;4.90;3.75;;;;;;;11.89;51.24;99080.46;1660513;86;21777;-61
2021/04/21 09:12:45;;;;;;;4.15;3.17;;;;;;;11.97;51.41;99080.34;1632489;86;21654;-61
2021/04/21 09:15:14;;;;;;;5.55;3.47;;;;;;;12.02;50.30;99088.98;1632653;86;21208;-62
2021/04/21 09:17:50;;;;;;;4.87;3.37;;;;;;;12.04;50.42;99076.69;1631553;87;21239;-61
2021/04/21 09:23:10;;;;;;;5.13;4.10;;;;;;;12.33;49.24;99076.46;1804838;77;23348;-62
2021/04/21 09:25:36;;;;;;;4.60;3.40;;;;;;;12.26;49.47;99079.58;1764488;79;21129;-63
2021/04/21 09:28:05;;;;;;;9.70;6.55;;;;;;;12.34;49.31;99088.45;1705040;84;21738;-62
2021/04/21 09:30:35;;;;;;;4.42;3.00;;;;;;;12.43;48.95;99088.59;1727161;83;21208;-62
2021/04/21 09:33:02;;;;;;;4.87;3.15;;;;;;;12.55;48.95;99085.37;1729144;83;21185;-61
2021/04/21 09:35:33;;;;;;;5.58;3.45;;;;;;;12.53;47.58;99086.23;1719957;83;21194;-62
2021/04/21 09:38:17;;;;;;;3.87;3.08;;;;;;;12.52;49.16;99088.15;1700286;83;21565;-62
2021/04/21 09:40:49;;;;;;;5.67;3.83;;;;;;;12.70;48.20;99088.64;1702530;83;21316;-61
2021/04/21 09:43:22;;;;;;;6.35;3.12;;;;;;;12.81;48.97;99078.34;1716138;83;21530;-62
2021/04/21 09:46:03;;;;;;;4.85;3.45;;;;;;;12.65;50.73;99109.20;1729114;83;21162;-61
2021/04/21 09:48:32;;;;;;;4.35;3.25;;;;;;;12.09;52.50;99111.23;1726033;82;21287;-62
2021/04/21 09:51:07;;;;;;;4.92;3.30;;;;;;;11.47;53.89;99105.84;1703697;83;21633;-63
2021/04/21 09:53:36;;;;;;;4.42;3.10;;;;;;;11.13;55.61;99111.97;1703703;83;21197;-62
2021/04/21 09:56:21;;;;;;;4.60;3.40;;;;;;;10.88;56.46;99112.25;1712876;83;21162;-63
2021/04/21 09:58:55;;;;;;;6.28;3.08;;;;;;;10.67;57.22;99125.80;1726872;83;21301;-66
2021/04/21 10:01:38;;;;;;;5.40;3.08;;;;;;;10.65;58.69;99122.57;1726540;83;21335;-64
2021/04/21 10:04:24;;;;;;;6.60;4.50;;;;;;;10.95;60.80;99115.44;1722560;83;21141;-65
2021/04/21 10:06:56;;;;;;;5.30;2.80;;;;;;;11.42;57.71;99120.06;1718743;82;21193;-64
2021/04/21 10:09:33;;;;;;;4.65;2.65;;;;;;;11.44;56.46;99126.05;1722379;83;21324;-65
2021/04/21 10:12:21;;;;;;;3.55;2.72;;;;;;;11.30;56.95;99123.78;1728897;83;21181;-66
2021/04/21 10:15:11;;;;;;;3.62;2.72;;;;;;;11.22;58.17;99117.59;1728994;82;21605;-64
2021/04/21 10:17:41;;;;;;;3.75;2.67;;;;;;;11.20;56.97;99112.97;1710476;83;21209;-64
2021/04/21 10:20:16;;;;;;;5.17;2.80;;;;;;;11.16;57.76;99122.86;1711484;83;21773;-64
2021/04/21 10:22:46;;;;;;;5.50;2.77;;;;;;;11.26;57.77;99111.29;1685535;84;21163;-63
2021/04/21 10:25:15;;;;;;;3.50;2.55;;;;;;;11.48;57.46;99116.98;1744391;82;21181;-64
2021/04/21 10:29:07;;;;;;;3.70;2.50;;;;;;;11.86;55.80;99114.33;1817426;79;22909;-64
2021/04/21 10:31:36;;;;;;;3.25;2.25;;;;;;;11.87;55.38;99115.93;1758603;80;21173;-64
2021/04/21 10:34:05;;;;;;;3.02;2.35;;;;;;;11.94;56.21;99111.73;1757303;80;21319;-65
2021/04/21 10:36:33;;;;;;;4.35;2.15;;;;;;;12.12;55.30;99110.09;1724008;83;21176;-65
2021/04/21 10:39:00;;;;;;;2.60;1.90;;;;;;;12.29;53.97;99106.84;1706119;83;21145;-65
2021/04/21 10:41:35;;;;;;;2.90;1.70;;;;;;;12.41;53.59;99103.89;1727572;83;22202;-63
2021/04/21 10:44:16;;;;;;;2.95;1.90;;;;;;;12.56;53.28;99104.73;1724011;83;21356;-65
2021/04/21 10:47:02;;;;;;;3.80;1.40;;;;;;;12.71;52.00;99099.83;1698727;83;21129;-66
2021/04/21 10:49:50;;;;;;;2.87;1.92;;;;;;;12.94;51.44;99098.02;1712585;83;21184;-65
2021/04/21 10:52:30;;;;;;;4.00;2.30;;;;;;;13.21;49.90;99101.37;1698711;84;21163;-65
2021/04/21 10:55:14;;;;;;;3.27;2.33;;;;;;;13.55;49.61;99094.89;1698550;84;21414;-65
2021/04/21 10:57:45;;;;;;;6.25;2.62;;;;;;;13.88;48.69;99093.61;1725216;83;21138;-65
2021/04/21 11:00:17;;;;;;;4.10;3.20;;;;;;;14.06;48.26;99106.06;1729082;82;22477;-65
2021/04/21 11:03:01;;;;;;;5.10;3.62;;;;;;;14.09;47.40;99103.52;1728953;83;21170;-66
2021/04/21 11:05:44;;;;;;;6.58;4.97;;;;;;;14.04;46.85;99106.36;1706077;82;21733;-66
2021/04/21 11:08:27;;;;;;;5.72;4.15;;;;;;;13.86;47.73;99095.83;1726562;82;21158;-65
2021/04/21 11:11:04;;;;;;;4.33;3.60;;;;;;;13.90;48.33;99105.05;1717044;83;21149;-65
2021/04/21 11:13:39;;;;;;;5.17;3.95;;;;;;;13.86;48.00;99104.59;1699863;84;21388;-67
2021/04/21 11:16:24;;;;;;;4.92;3.75;;;;;;;13.68;48.50;99106.91;1699804;84;21327;-64
2021/04/21 11:18:51;;;;;;;5.72;4.05;;;;;;;13.63;49.28;99116.06;1699848;84;21631;-65
2021/04/21 11:21:22;;;;;;;6.17;4.60;;;;;;;13.56;49.12;99104.73;1700079;84;21319;-66
2021/04/21 11:24:07;;;;;;;5.03;4.15;;;;;;;13.35;49.79;99100.80;1659276;84;21406;-64
2021/04/21 11:26:43;;;;;;;6.60;4.40;;;;;;;13.25;50.20;99105.90;1700034;84;21303;-66
2021/04/21 11:29:30;;;;;;;5.97;4.72;;;;;;;13.14;50.35;99107.24;1711364;83;21196;-65
2021/04/21 11:32:06;;;;;;;6.47;4.78;;;;;;;13.15;50.91;99105.29;1742840;82;21107;-67
2021/04/21 11:34:35;;;;;;;4.83;3.87;;;;;;;13.22;51.64;99103.78;1744024;82;21150;-66
2021/04/21 11:37:15;;;;;;;4.80;3.87;;;;;;;13.49;51.37;99103.52;1742772;81;21161;-65
2021/04/21 11:39:57;;;;;;;6.62;4.20;;;;;;;13.73;51.17;99110.91;1740985;82;21158;-64
2021/04/21 11:42:45;;;;;;;5.85;4.05;;;;;;;14.07;51.38;99100.82;1740626;82;21186;-66
2021/04/21 11:45:25;;;;;;;6.87;4.25;;;;;;;14.34;47.58;99109.78;1702959;82;21585;-66
2021/04/21 11:48:07;;;;;;;7.03;4.70;;;;;;;14.43;47.00;99092.84;1762397;81;21730;-65
2021/04/21 11:50:42;;;;;;;5.12;3.40;;;;;;;14.45;47.24;99101.54;1771156;81;21322;-66
2021/04/21 11:53:17;;;;;;;9.65;4.33;;;;;;;14.50;47.97;99101.17;1771526;81;21181;-64
2021/04/21 11:55:59;;;;;;;4.90;3.72;;;;;;;14.44;48.31;99107.34;1691591;84;21170;-64
2021/04/21 12:01:14;;;;;;;3.97;2.73;;;;;;;14.22;45.10;99109.49;1780068;79;23100;-67
2021/04/21 12:03:45;;;;;;;3.35;2.08;;;;;;;14.12;45.42;99111.66;1746427;82;21999;-65
2021/04/21 12:06:16;;;;;;;6.42;2.25;;;;;;;14.06;43.71;99109.62;1720731;83;21181;-66
2021/04/21 12:08:48;;;;;;;3.98;2.58;;;;;;;14.00;44.88;99105.36;1722632;83;21318;-65
2021/04/21 12:11:29;;;;;;;5.70;3.05;;;;;;;14.04;45.21;99110.47;1722608;83;21149;-64
2021/04/21 12:13:57;;;;;;;7.33;3.58;;;;;;;14.03;46.39;99112.95;1722676;83;21707;-66
2021/04/21 12:16:27;;;;;;;3.42;2.50;;;;;;;13.93;46.60;99110.45;1720856;82;21600;-64
2021/04/21 12:18:55;;;;;;;4.80;3.37;;;;;;;13.76;45.93;99107.56;1722626;83;21877;-64
2021/04/21 12:21:28;;;;;;;5.37;3.70;;;;;;;13.61;47.44;99111.98;1722768;83;21188;-64
2021/04/21 12:24:04;;;;;;;4.72;2.87;;;;;;;13.53;47.41;99109.44;1722638;83;21684;-65
2021/04/21 12:26:46;;;;;;;4.15;2.52;;;;;;;13.46;46.67;99109.83;1697913;83;21180;-64